sensor_id;sensor_type;location;lat;lon;timestamp;P1;durP1;ratioP1;P2;durP2;ratioP2
83127;SDS011;73018;51.502;10.774;2023-09-30T00:02:20;2.45;;;0.95;;
83127;SDS011;73018;51.502;10.774;2023-09-30T00:04:46;2.10;;;0.90;;
83127;SDS011;73018;51.502;10.774;2023-09-30T00:07:12;3.63;;;1.10;;
83127;SDS011;73018;51.502;10.774;2023-09-30T00:09:39;1.75;;;0.70;;
83127;SDS011;73018;51.502;10.774;2023-09-30T00:12:06;2.10;;;0.90;;
83127;SDS011;73018;51.502;10.774;2023-09-30T00:14:32;1.95;;;0.95;;
83127;SDS011;73018;51.502;10.774;2023-09-30T00:16:58;2.85;;;1.23;;
83127;SDS011;73018;51.502;10.774;2023-09-30T00:19:26;2.03;;;1.00;;
83127;SDS011;73018;51.502;10.774;2023-09-30T00:21:52;2.28;;;0.88;;
83127;SDS011;73018;51.502;10.774;2023-09-30T00:24:19;1.98;;;1.00;;
83127;SDS011;73018;51.502;10.774;2023-09-30T00:26:45;1.80;;;0.70;;
83127;SDS011;73018;51.502;10.774;2023-09-30T00:29:11;1.98;;;0.90;;
83127;SDS011;73018;51.502;10.774;2023-09-30T00:31:37;2.17;;;0.80;;
83127;SDS011;73018;51.502;10.774;2023-09-30T00:34:03;2.90;;;1.20;;
83127;SDS011;73018;51.502;10.774;2023-09-30T00:36:31;1.63;;;0.70;;
83127;SDS011;73018;51.502;10.774;2023-09-30T00:38:57;2.40;;;1.10;;
83127;SDS011;73018;51.502;10.774;2023-09-30T00:41:23;1.73;;;1.00;;
83127;SDS011;73018;51.502;10.774;2023-09-30T00:46:17;2.22;;;0.88;;
83127;SDS011;73018;51.502;10.774;2023-09-30T00:48:44;2.42;;;0.80;;
83127;SDS011;73018;51.502;10.774;2023-09-30T00:51:10;2.15;;;1.00;;
83127;SDS011;73018;51.502;10.774;2023-09-30T00:56:04;2.47;;;1.10;;
83127;SDS011;73018;51.502;10.774;2023-09-30T00:58:31;1.20;;;0.70;;
83127;SDS011;73018;51.502;10.774;2023-09-30T01:00:57;2.42;;;1.05;;
83127;SDS011;73018;51.502;10.774;2023-09-30T01:03:25;1.80;;;0.80;;
83127;SDS011;73018;51.502;10.774;2023-09-30T01:05:51;1.73;;;0.80;;
83127;SDS011;73018;51.502;10.774;2023-09-30T01:10:43;1.45;;;0.70;;
83127;SDS011;73018;51.502;10.774;2023-09-30T01:13:11;2.42;;;1.15;;
83127;SDS011;73018;51.502;10.774;2023-09-30T01:15:37;1.95;;;0.80;;
83127;SDS011;73018;51.502;10.774;2023-09-30T01:20:29;2.17;;;0.80;;
83127;SDS011;73018;51.502;10.774;2023-09-30T01:22:57;1.65;;;0.77;;
83127;SDS011;73018;51.502;10.774;2023-09-30T01:25:24;1.63;;;0.88;;
83127;SDS011;73018;51.502;10.774;2023-09-30T01:27:50;1.50;;;0.70;;
83127;SDS011;73018;51.502;10.774;2023-09-30T01:30:16;2.80;;;1.05;;
83127;SDS011;73018;51.502;10.774;2023-09-30T01:32:43;1.90;;;0.80;;
83127;SDS011;73018;51.502;10.774;2023-09-30T01:35:09;1.85;;;0.90;;
83127;SDS011;73018;51.502;10.774;2023-09-30T01:37:35;1.67;;;0.70;;
83127;SDS011;73018;51.502;10.774;2023-09-30T01:40:03;2.00;;;0.90;;
83127;SDS011;73018;51.502;10.774;2023-09-30T01:42:29;1.33;;;0.65;;
83127;SDS011;73018;51.502;10.774;2023-09-30T01:44:55;2.65;;;0.82;;
83127;SDS011;73018;51.502;10.774;2023-09-30T01:47:22;2.55;;;0.93;;
83127;SDS011;73018;51.502;10.774;2023-09-30T01:52:14;1.60;;;0.88;;
83127;SDS011;73018;51.502;10.774;2023-09-30T01:54:41;2.10;;;0.70;;
83127;SDS011;73018;51.502;10.774;2023-09-30T01:59:34;1.90;;;0.95;;
83127;SDS011;73018;51.502;10.774;2023-09-30T02:02:00;1.90;;;0.70;;
83127;SDS011;73018;51.502;10.774;2023-09-30T02:04:27;1.85;;;0.77;;
83127;SDS011;73018;51.502;10.774;2023-09-30T02:06:54;2.20;;;1.10;;
83127;SDS011;73018;51.502;10.774;2023-09-30T02:11:46;1.83;;;0.85;;
83127;SDS011;73018;51.502;10.774;2023-09-30T02:14:12;1.92;;;0.65;;
83127;SDS011;73018;51.502;10.774;2023-09-30T02:19:06;2.00;;;0.80;;
83127;SDS011;73018;51.502;10.774;2023-09-30T02:21:33;1.83;;;0.70;;
83127;SDS011;73018;51.502;10.774;2023-09-30T02:24:00;1.98;;;0.90;;
83127;SDS011;73018;51.502;10.774;2023-09-30T02:26:27;1.70;;;0.80;;
83127;SDS011;73018;51.502;10.774;2023-09-30T02:28:54;2.08;;;0.90;;
83127;SDS011;73018;51.502;10.774;2023-09-30T02:31:21;2.20;;;0.90;;
83127;SDS011;73018;51.502;10.774;2023-09-30T02:36:14;1.63;;;0.80;;
83127;SDS011;73018;51.502;10.774;2023-09-30T02:38:40;1.75;;;0.88;;
83127;SDS011;73018;51.502;10.774;2023-09-30T02:41:07;1.98;;;0.70;;
83127;SDS011;73018;51.502;10.774;2023-09-30T02:43:33;2.33;;;0.82;;
83127;SDS011;73018;51.502;10.774;2023-09-30T02:48:25;1.73;;;0.73;;
83127;SDS011;73018;51.502;10.774;2023-09-30T02:50:52;1.50;;;0.65;;
83127;SDS011;73018;51.502;10.774;2023-09-30T02:53:19;1.33;;;0.57;;
83127;SDS011;73018;51.502;10.774;2023-09-30T02:55:46;1.80;;;0.80;;
83127;SDS011;73018;51.502;10.774;2023-09-30T03:00:39;1.15;;;0.65;;
83127;SDS011;73018;51.502;10.774;2023-09-30T03:03:05;1.65;;;0.70;;
83127;SDS011;73018;51.502;10.774;2023-09-30T03:07:58;2.15;;;0.98;;
83127;SDS011;73018;51.502;10.774;2023-09-30T03:10:26;1.73;;;0.82;;
83127;SDS011;73018;51.502;10.774;2023-09-30T03:12:53;2.47;;;0.95;;
83127;SDS011;73018;51.502;10.774;2023-09-30T03:15:19;2.05;;;0.65;;
83127;SDS011;73018;51.502;10.774;2023-09-30T03:17:45;1.60;;;0.73;;
83127;SDS011;73018;51.502;10.774;2023-09-30T03:22:38;2.20;;;0.85;;
83127;SDS011;73018;51.502;10.774;2023-09-30T03:25:06;1.80;;;0.90;;
83127;SDS011;73018;51.502;10.774;2023-09-30T03:27:34;1.45;;;0.68;;
83127;SDS011;73018;51.502;10.774;2023-09-30T03:30:01;1.58;;;0.68;;
83127;SDS011;73018;51.502;10.774;2023-09-30T03:32:27;1.75;;;0.60;;
83127;SDS011;73018;51.502;10.774;2023-09-30T03:34:54;2.03;;;0.90;;
83127;SDS011;73018;51.502;10.774;2023-09-30T03:37:24;1.75;;;0.90;;
83127;SDS011;73018;51.502;10.774;2023-09-30T03:39:51;2.20;;;1.20;;
83127;SDS011;73018;51.502;10.774;2023-09-30T03:42:18;1.65;;;0.70;;
83127;SDS011;73018;51.502;10.774;2023-09-30T03:47:12;1.95;;;0.88;;
83127;SDS011;73018;51.502;10.774;2023-09-30T03:49:38;1.70;;;0.68;;
83127;SDS011;73018;51.502;10.774;2023-09-30T03:52:04;2.30;;;0.90;;
83127;SDS011;73018;51.502;10.774;2023-09-30T03:54:31;1.67;;;0.80;;
83127;SDS011;73018;51.502;10.774;2023-09-30T03:56:57;1.58;;;0.70;;
83127;SDS011;73018;51.502;10.774;2023-09-30T03:59:25;2.08;;;0.80;;
83127;SDS011;73018;51.502;10.774;2023-09-30T04:01:51;1.60;;;0.60;;
83127;SDS011;73018;51.502;10.774;2023-09-30T04:04:20;1.95;;;0.95;;
83127;SDS011;73018;51.502;10.774;2023-09-30T04:06:46;1.35;;;0.60;;
83127;SDS011;73018;51.502;10.774;2023-09-30T04:11:38;1.27;;;0.50;;
83127;SDS011;73018;51.502;10.774;2023-09-30T04:16:31;1.73;;;0.65;;
83127;SDS011;73018;51.502;10.774;2023-09-30T04:18:57;2.05;;;0.90;;
83127;SDS011;73018;51.502;10.774;2023-09-30T04:23:50;1.90;;;0.70;;
83127;SDS011;73018;51.502;10.774;2023-09-30T04:26:16;1.35;;;0.60;;
83127;SDS011;73018;51.502;10.774;2023-09-30T04:31:09;1.20;;;0.57;;
83127;SDS011;73018;51.502;10.774;2023-09-30T04:33:35;1.42;;;0.65;;
83127;SDS011;73018;51.502;10.774;2023-09-30T04:36:02;1.20;;;0.40;;
83127;SDS011;73018;51.502;10.774;2023-09-30T04:38:28;1.90;;;0.75;;
83127;SDS011;73018;51.502;10.774;2023-09-30T04:40:57;1.85;;;0.80;;
83127;SDS011;73018;51.502;10.774;2023-09-30T04:43:23;1.58;;;0.88;;
83127;SDS011;73018;51.502;10.774;2023-09-30T04:48:18;1.58;;;0.55;;
83127;SDS011;73018;51.502;10.774;2023-09-30T04:53:10;1.27;;;0.68;;
83127;SDS011;73018;51.502;10.774;2023-09-30T04:55:37;1.35;;;0.68;;
83127;SDS011;73018;51.502;10.774;2023-09-30T05:00:31;1.30;;;0.60;;
83127;SDS011;73018;51.502;10.774;2023-09-30T05:02:58;1.23;;;0.55;;
83127;SDS011;73018;51.502;10.774;2023-09-30T05:07:50;1.33;;;0.50;;
83127;SDS011;73018;51.502;10.774;2023-09-30T05:12:42;1.73;;;0.60;;
83127;SDS011;73018;51.502;10.774;2023-09-30T05:15:11;1.50;;;0.60;;
83127;SDS011;73018;51.502;10.774;2023-09-30T05:17:38;1.92;;;0.82;;
83127;SDS011;73018;51.502;10.774;2023-09-30T05:20:05;1.60;;;0.68;;
83127;SDS011;73018;51.502;10.774;2023-09-30T05:22:32;1.90;;;0.90;;
83127;SDS011;73018;51.502;10.774;2023-09-30T05:24:58;1.65;;;0.80;;
83127;SDS011;73018;51.502;10.774;2023-09-30T05:27:25;1.15;;;0.52;;
83127;SDS011;73018;51.502;10.774;2023-09-30T05:29:52;2.42;;;0.90;;
83127;SDS011;73018;51.502;10.774;2023-09-30T05:32:19;1.50;;;0.50;;
83127;SDS011;73018;51.502;10.774;2023-09-30T05:34:46;1.50;;;0.60;;
83127;SDS011;73018;51.502;10.774;2023-09-30T05:37:13;1.27;;;0.52;;
83127;SDS011;73018;51.502;10.774;2023-09-30T05:42:05;1.25;;;0.50;;
83127;SDS011;73018;51.502;10.774;2023-09-30T05:44:32;2.08;;;0.73;;
83127;SDS011;73018;51.502;10.774;2023-09-30T05:49:25;1.10;;;0.50;;
83127;SDS011;73018;51.502;10.774;2023-09-30T05:51:52;1.83;;;0.93;;
83127;SDS011;73018;51.502;10.774;2023-09-30T05:54:19;1.75;;;0.63;;
83127;SDS011;73018;51.502;10.774;2023-09-30T05:56:45;1.63;;;0.70;;
83127;SDS011;73018;51.502;10.774;2023-09-30T05:59:12;1.55;;;0.65;;
83127;SDS011;73018;51.502;10.774;2023-09-30T06:01:38;1.67;;;0.60;;
83127;SDS011;73018;51.502;10.774;2023-09-30T06:04:04;1.85;;;0.77;;
83127;SDS011;73018;51.502;10.774;2023-09-30T06:06:31;1.35;;;0.60;;
83127;SDS011;73018;51.502;10.774;2023-09-30T06:11:25;1.48;;;0.65;;
83127;SDS011;73018;51.502;10.774;2023-09-30T06:13:53;1.95;;;0.75;;
83127;SDS011;73018;51.502;10.774;2023-09-30T06:16:19;2.28;;;0.80;;
83127;SDS011;73018;51.502;10.774;2023-09-30T06:18:46;1.35;;;0.55;;
83127;SDS011;73018;51.502;10.774;2023-09-30T06:21:13;1.73;;;0.60;;
83127;SDS011;73018;51.502;10.774;2023-09-30T06:23:40;1.80;;;0.50;;
83127;SDS011;73018;51.502;10.774;2023-09-30T06:26:06;1.55;;;0.63;;
83127;SDS011;73018;51.502;10.774;2023-09-30T06:28:34;1.20;;;0.57;;
83127;SDS011;73018;51.502;10.774;2023-09-30T06:31:05;1.77;;;0.70;;
83127;SDS011;73018;51.502;10.774;2023-09-30T06:33:33;1.50;;;0.63;;
83127;SDS011;73018;51.502;10.774;2023-09-30T06:35:59;1.33;;;0.63;;
83127;SDS011;73018;51.502;10.774;2023-09-30T06:38:27;1.67;;;0.70;;
83127;SDS011;73018;51.502;10.774;2023-09-30T06:40:54;1.65;;;0.70;;
83127;SDS011;73018;51.502;10.774;2023-09-30T06:43:21;2.05;;;0.70;;
83127;SDS011;73018;51.502;10.774;2023-09-30T06:45:49;1.50;;;0.60;;
83127;SDS011;73018;51.502;10.774;2023-09-30T06:48:15;1.90;;;0.80;;
83127;SDS011;73018;51.502;10.774;2023-09-30T06:50:43;1.70;;;0.80;;
83127;SDS011;73018;51.502;10.774;2023-09-30T06:53:10;1.95;;;0.63;;
83127;SDS011;73018;51.502;10.774;2023-09-30T06:55:37;1.98;;;0.70;;
83127;SDS011;73018;51.502;10.774;2023-09-30T06:58:03;1.45;;;0.60;;
83127;SDS011;73018;51.502;10.774;2023-09-30T07:00:32;1.58;;;0.50;;
83127;SDS011;73018;51.502;10.774;2023-09-30T07:05:25;1.25;;;0.60;;
83127;SDS011;73018;51.502;10.774;2023-09-30T07:07:53;1.63;;;0.70;;
83127;SDS011;73018;51.502;10.774;2023-09-30T07:10:19;1.30;;;0.47;;
83127;SDS011;73018;51.502;10.774;2023-09-30T07:12:46;2.13;;;0.65;;
83127;SDS011;73018;51.502;10.774;2023-09-30T07:15:12;1.80;;;0.68;;
83127;SDS011;73018;51.502;10.774;2023-09-30T07:17:39;1.67;;;0.70;;
83127;SDS011;73018;51.502;10.774;2023-09-30T07:20:05;2.22;;;0.90;;
83127;SDS011;73018;51.502;10.774;2023-09-30T07:22:33;1.40;;;0.70;;
83127;SDS011;73018;51.502;10.774;2023-09-30T07:25:00;1.23;;;0.60;;
83127;SDS011;73018;51.502;10.774;2023-09-30T07:27:26;1.85;;;0.65;;
83127;SDS011;73018;51.502;10.774;2023-09-30T07:32:18;1.40;;;0.70;;
83127;SDS011;73018;51.502;10.774;2023-09-30T07:34:44;1.20;;;0.50;;
83127;SDS011;73018;51.502;10.774;2023-09-30T07:37:10;1.55;;;0.60;;
83127;SDS011;73018;51.502;10.774;2023-09-30T07:42:03;1.08;;;0.50;;
83127;SDS011;73018;51.502;10.774;2023-09-30T07:44:30;2.42;;;0.70;;
83127;SDS011;73018;51.502;10.774;2023-09-30T07:46:57;7.00;;;2.60;;
83127;SDS011;73018;51.502;10.774;2023-09-30T07:49:23;5.93;;;2.25;;
83127;SDS011;73018;51.502;10.774;2023-09-30T07:51:49;6.85;;;2.63;;
83127;SDS011;73018;51.502;10.774;2023-09-30T07:56:42;7.78;;;2.47;;
83127;SDS011;73018;51.502;10.774;2023-09-30T07:59:09;6.03;;;1.95;;
83127;SDS011;73018;51.502;10.774;2023-09-30T08:01:35;7.40;;;1.95;;
83127;SDS011;73018;51.502;10.774;2023-09-30T08:04:02;5.57;;;2.33;;
83127;SDS011;73018;51.502;10.774;2023-09-30T08:06:28;9.70;;;2.63;;
83127;SDS011;73018;51.502;10.774;2023-09-30T08:08:54;7.20;;;2.17;;
83127;SDS011;73018;51.502;10.774;2023-09-30T08:11:20;6.80;;;2.45;;
83127;SDS011;73018;51.502;10.774;2023-09-30T08:13:46;8.85;;;2.38;;
83127;SDS011;73018;51.502;10.774;2023-09-30T08:18:40;8.10;;;2.60;;
83127;SDS011;73018;51.502;10.774;2023-09-30T08:21:08;6.85;;;2.33;;
83127;SDS011;73018;51.502;10.774;2023-09-30T08:23:35;9.43;;;2.58;;
83127;SDS011;73018;51.502;10.774;2023-09-30T08:28:28;6.93;;;2.30;;
83127;SDS011;73018;51.502;10.774;2023-09-30T08:33:24;11.13;;;1.95;;
83127;SDS011;73018;51.502;10.774;2023-09-30T08:35:52;8.25;;;2.13;;
83127;SDS011;73018;51.502;10.774;2023-09-30T08:38:18;6.30;;;2.00;;
83127;SDS011;73018;51.502;10.774;2023-09-30T08:43:11;7.07;;;2.05;;
83127;SDS011;73018;51.502;10.774;2023-09-30T08:48:03;7.47;;;1.80;;
83127;SDS011;73018;51.502;10.774;2023-09-30T08:50:31;8.10;;;2.40;;
83127;SDS011;73018;51.502;10.774;2023-09-30T08:52:59;7.93;;;2.45;;
83127;SDS011;73018;51.502;10.774;2023-09-30T08:55:26;8.15;;;2.65;;
83127;SDS011;73018;51.502;10.774;2023-09-30T08:57:52;6.35;;;2.00;;
83127;SDS011;73018;51.502;10.774;2023-09-30T09:00:20;7.03;;;2.05;;
83127;SDS011;73018;51.502;10.774;2023-09-30T09:02:46;6.07;;;2.00;;
83127;SDS011;73018;51.502;10.774;2023-09-30T09:05:12;5.32;;;2.28;;
83127;SDS011;73018;51.502;10.774;2023-09-30T09:10:06;6.22;;;2.03;;
83127;SDS011;73018;51.502;10.774;2023-09-30T09:12:33;6.53;;;1.80;;
83127;SDS011;73018;51.502;10.774;2023-09-30T09:14:59;6.43;;;1.70;;
83127;SDS011;73018;51.502;10.774;2023-09-30T09:17:29;6.13;;;2.10;;
83127;SDS011;73018;51.502;10.774;2023-09-30T09:20:06;7.28;;;1.88;;
83127;SDS011;73018;51.502;10.774;2023-09-30T09:22:38;6.85;;;1.77;;
83127;SDS011;73018;51.502;10.774;2023-09-30T09:25:04;6.32;;;1.98;;
83127;SDS011;73018;51.502;10.774;2023-09-30T09:27:33;6.53;;;1.80;;
83127;SDS011;73018;51.502;10.774;2023-09-30T09:30:15;6.13;;;1.70;;
83127;SDS011;73018;51.502;10.774;2023-09-30T09:32:51;7.93;;;1.60;;
83127;SDS011;73018;51.502;10.774;2023-09-30T09:35:22;6.47;;;2.17;;
83127;SDS011;73018;51.502;10.774;2023-09-30T09:37:56;5.60;;;1.70;;
83127;SDS011;73018;51.502;10.774;2023-09-30T09:40:23;6.35;;;1.63;;
83127;SDS011;73018;51.502;10.774;2023-09-30T09:42:50;3.65;;;1.30;;
83127;SDS011;73018;51.502;10.774;2023-09-30T09:45:20;4.20;;;1.30;;
83127;SDS011;73018;51.502;10.774;2023-09-30T09:47:48;4.72;;;1.20;;
83127;SDS011;73018;51.502;10.774;2023-09-30T09:50:14;4.88;;;1.77;;
83127;SDS011;73018;51.502;10.774;2023-09-30T09:52:40;7.47;;;1.55;;
83127;SDS011;73018;51.502;10.774;2023-09-30T09:55:10;4.07;;;1.20;;
83127;SDS011;73018;51.502;10.774;2023-09-30T09:57:37;3.47;;;1.17;;
83127;SDS011;73018;51.502;10.774;2023-09-30T10:00:05;3.03;;;1.23;;
83127;SDS011;73018;51.502;10.774;2023-09-30T10:02:36;4.47;;;1.38;;
83127;SDS011;73018;51.502;10.774;2023-09-30T10:05:05;4.78;;;1.30;;
83127;SDS011;73018;51.502;10.774;2023-09-30T10:07:33;3.25;;;1.35;;
83127;SDS011;73018;51.502;10.774;2023-09-30T10:10:01;3.72;;;1.20;;
83127;SDS011;73018;51.502;10.774;2023-09-30T10:12:35;5.10;;;1.50;;
83127;SDS011;73018;51.502;10.774;2023-09-30T10:15:13;5.22;;;1.80;;
83127;SDS011;73018;51.502;10.774;2023-09-30T10:18:00;3.65;;;1.30;;
83127;SDS011;73018;51.502;10.774;2023-09-30T10:20:28;6.13;;;1.90;;
83127;SDS011;73018;51.502;10.774;2023-09-30T10:25:35;3.50;;;1.13;;
83127;SDS011;73018;51.502;10.774;2023-09-30T10:33:27;4.22;;;1.48;;
83127;SDS011;73018;51.502;10.774;2023-09-30T10:35:53;5.00;;;1.48;;
83127;SDS011;73018;51.502;10.774;2023-09-30T10:38:38;4.65;;;1.63;;
83127;SDS011;73018;51.502;10.774;2023-09-30T10:41:06;4.38;;;1.15;;
83127;SDS011;73018;51.502;10.774;2023-09-30T10:43:34;4.43;;;1.40;;
83127;SDS011;73018;51.502;10.774;2023-09-30T10:46:04;5.78;;;1.40;;
83127;SDS011;73018;51.502;10.774;2023-09-30T10:48:36;6.13;;;1.48;;
83127;SDS011;73018;51.502;10.774;2023-09-30T10:51:13;4.57;;;1.50;;
83127;SDS011;73018;51.502;10.774;2023-09-30T10:53:41;6.25;;;1.88;;
83127;SDS011;73018;51.502;10.774;2023-09-30T10:56:07;5.30;;;1.73;;
83127;SDS011;73018;51.502;10.774;2023-09-30T11:00:59;4.28;;;1.20;;
83127;SDS011;73018;51.502;10.774;2023-09-30T11:05:53;3.50;;;1.20;;
83127;SDS011;73018;51.502;10.774;2023-09-30T11:08:19;7.15;;;1.58;;
83127;SDS011;73018;51.502;10.774;2023-09-30T11:10:48;6.25;;;1.52;;
83127;SDS011;73018;51.502;10.774;2023-09-30T11:13:15;5.72;;;1.35;;
83127;SDS011;73018;51.502;10.774;2023-09-30T11:15:41;6.43;;;1.67;;
83127;SDS011;73018;51.502;10.774;2023-09-30T11:18:12;4.55;;;1.30;;
83127;SDS011;73018;51.502;10.774;2023-09-30T11:20:38;4.28;;;1.08;;
83127;SDS011;73018;51.502;10.774;2023-09-30T11:23:06;5.63;;;1.92;;
83127;SDS011;73018;51.502;10.774;2023-09-30T11:25:34;5.10;;;2.90;;
83127;SDS011;73018;51.502;10.774;2023-09-30T11:28:12;11.02;;;3.33;;
83127;SDS011;73018;51.502;10.774;2023-09-30T11:30:52;12.13;;;4.90;;
83127;SDS011;73018;51.502;10.774;2023-09-30T11:33:18;13.27;;;6.10;;
83127;SDS011;73018;51.502;10.774;2023-09-30T11:38:11;37.60;;;17.95;;
83127;SDS011;73018;51.502;10.774;2023-09-30T11:40:37;55.50;;;27.27;;
83127;SDS011;73018;51.502;10.774;2023-09-30T11:45:29;54.08;;;24.25;;
83127;SDS011;73018;51.502;10.774;2023-09-30T11:47:55;50.22;;;22.70;;
83127;SDS011;73018;51.502;10.774;2023-09-30T11:50:23;51.05;;;21.55;;
83127;SDS011;73018;51.502;10.774;2023-09-30T11:52:49;48.05;;;20.40;;
83127;SDS011;73018;51.502;10.774;2023-09-30T11:55:17;42.83;;;19.45;;
83127;SDS011;73018;51.502;10.774;2023-09-30T11:57:45;41.03;;;16.77;;
83127;SDS011;73018;51.502;10.774;2023-09-30T12:00:12;31.63;;;14.50;;
83127;SDS011;73018;51.502;10.774;2023-09-30T12:02:39;28.17;;;11.73;;
83127;SDS011;73018;51.502;10.774;2023-09-30T12:05:07;26.17;;;9.63;;
83127;SDS011;73018;51.502;10.774;2023-09-30T12:07:36;25.75;;;9.68;;
83127;SDS011;73018;51.502;10.774;2023-09-30T12:10:03;24.10;;;10.15;;
83127;SDS011;73018;51.502;10.774;2023-09-30T12:12:31;19.10;;;7.82;;
83127;SDS011;73018;51.502;10.774;2023-09-30T12:14:57;10.00;;;2.88;;
83127;SDS011;73018;51.502;10.774;2023-09-30T12:19:49;10.50;;;3.88;;
83127;SDS011;73018;51.502;10.774;2023-09-30T12:22:16;4.25;;;1.42;;
83127;SDS011;73018;51.502;10.774;2023-09-30T12:24:42;11.73;;;3.20;;
83127;SDS011;73018;51.502;10.774;2023-09-30T12:27:09;5.47;;;1.92;;
83127;SDS011;73018;51.502;10.774;2023-09-30T12:32:05;5.55;;;2.20;;
83127;SDS011;73018;51.502;10.774;2023-09-30T12:34:31;8.07;;;1.90;;
83127;SDS011;73018;51.502;10.774;2023-09-30T12:36:58;5.65;;;2.03;;
83127;SDS011;73018;51.502;10.774;2023-09-30T12:39:24;6.78;;;1.67;;
83127;SDS011;73018;51.502;10.774;2023-09-30T12:41:51;3.22;;;1.45;;
83127;SDS011;73018;51.502;10.774;2023-09-30T12:46:44;4.75;;;1.80;;
83127;SDS011;73018;51.502;10.774;2023-09-30T12:49:11;5.80;;;1.55;;
83127;SDS011;73018;51.502;10.774;2023-09-30T12:51:37;5.45;;;1.45;;
83127;SDS011;73018;51.502;10.774;2023-09-30T12:54:03;5.95;;;1.60;;
83127;SDS011;73018;51.502;10.774;2023-09-30T12:56:30;3.70;;;1.50;;
83127;SDS011;73018;51.502;10.774;2023-09-30T12:58:57;10.38;;;1.20;;
83127;SDS011;73018;51.502;10.774;2023-09-30T13:01:23;4.07;;;1.45;;
83127;SDS011;73018;51.502;10.774;2023-09-30T13:03:49;3.05;;;1.00;;
83127;SDS011;73018;51.502;10.774;2023-09-30T13:06:18;3.70;;;1.00;;
83127;SDS011;73018;51.502;10.774;2023-09-30T13:08:45;2.20;;;0.73;;
83127;SDS011;73018;51.502;10.774;2023-09-30T13:11:11;2.65;;;0.90;;
83127;SDS011;73018;51.502;10.774;2023-09-30T13:13:37;3.90;;;1.20;;
83127;SDS011;73018;51.502;10.774;2023-09-30T13:18:35;4.55;;;1.10;;
83127;SDS011;73018;51.502;10.774;2023-09-30T13:23:28;3.75;;;1.13;;
83127;SDS011;73018;51.502;10.774;2023-09-30T13:25:55;4.53;;;1.13;;
83127;SDS011;73018;51.502;10.774;2023-09-30T13:28:22;3.90;;;1.05;;
83127;SDS011;73018;51.502;10.774;2023-09-30T13:33:14;5.28;;;1.10;;
83127;SDS011;73018;51.502;10.774;2023-09-30T13:38:05;3.75;;;1.00;;
83127;SDS011;73018;51.502;10.774;2023-09-30T13:42:59;6.35;;;1.30;;
83127;SDS011;73018;51.502;10.774;2023-09-30T13:45:25;4.60;;;1.05;;
83127;SDS011;73018;51.502;10.774;2023-09-30T13:47:53;3.53;;;1.45;;
83127;SDS011;73018;51.502;10.774;2023-09-30T13:50:19;4.07;;;1.30;;
83127;SDS011;73018;51.502;10.774;2023-09-30T13:52:45;4.25;;;0.95;;
83127;SDS011;73018;51.502;10.774;2023-09-30T13:55:12;5.32;;;1.45;;
83127;SDS011;73018;51.502;10.774;2023-09-30T13:57:43;3.45;;;1.00;;
83127;SDS011;73018;51.502;10.774;2023-09-30T14:00:12;2.35;;;0.90;;
83127;SDS011;73018;51.502;10.774;2023-09-30T14:02:38;4.22;;;0.98;;
83127;SDS011;73018;51.502;10.774;2023-09-30T14:05:05;7.28;;;1.15;;
83127;SDS011;73018;51.502;10.774;2023-09-30T14:07:33;5.13;;;1.00;;
83127;SDS011;73018;51.502;10.774;2023-09-30T14:09:59;3.67;;;0.80;;
83127;SDS011;73018;51.502;10.774;2023-09-30T14:12:26;5.50;;;1.48;;
83127;SDS011;73018;51.502;10.774;2023-09-30T14:14:52;2.58;;;1.10;;
83127;SDS011;73018;51.502;10.774;2023-09-30T14:19:45;3.47;;;0.90;;
83127;SDS011;73018;51.502;10.774;2023-09-30T14:22:12;4.32;;;1.30;;
83127;SDS011;73018;51.502;10.774;2023-09-30T14:24:38;3.97;;;0.85;;
83127;SDS011;73018;51.502;10.774;2023-09-30T14:29:30;2.83;;;1.20;;
83127;SDS011;73018;51.502;10.774;2023-09-30T14:31:57;8.27;;;1.55;;
83127;SDS011;73018;51.502;10.774;2023-09-30T14:34:23;5.03;;;1.10;;
83127;SDS011;73018;51.502;10.774;2023-09-30T14:39:16;4.00;;;1.25;;
83127;SDS011;73018;51.502;10.774;2023-09-30T14:41:42;3.10;;;1.13;;
83127;SDS011;73018;51.502;10.774;2023-09-30T14:46:37;5.47;;;1.10;;
83127;SDS011;73018;51.502;10.774;2023-09-30T14:49:03;5.65;;;1.52;;
83127;SDS011;73018;51.502;10.774;2023-09-30T14:51:31;4.57;;;1.50;;
83127;SDS011;73018;51.502;10.774;2023-09-30T14:56:24;5.10;;;1.17;;
83127;SDS011;73018;51.502;10.774;2023-09-30T14:58:50;4.55;;;1.13;;
83127;SDS011;73018;51.502;10.774;2023-09-30T15:01:16;6.63;;;1.40;;
83127;SDS011;73018;51.502;10.774;2023-09-30T15:03:45;4.53;;;1.10;;
83127;SDS011;73018;51.502;10.774;2023-09-30T15:08:37;7.13;;;3.10;;
83127;SDS011;73018;51.502;10.774;2023-09-30T15:11:04;6.85;;;2.20;;
83127;SDS011;73018;51.502;10.774;2023-09-30T15:13:32;5.20;;;1.60;;
83127;SDS011;73018;51.502;10.774;2023-09-30T15:15:58;4.70;;;1.27;;
83127;SDS011;73018;51.502;10.774;2023-09-30T15:18:25;4.53;;;1.13;;
83127;SDS011;73018;51.502;10.774;2023-09-30T15:23:17;6.07;;;1.23;;
83127;SDS011;73018;51.502;10.774;2023-09-30T15:28:09;3.95;;;1.38;;
83127;SDS011;73018;51.502;10.774;2023-09-30T15:33:02;6.70;;;1.92;;
83127;SDS011;73018;51.502;10.774;2023-09-30T15:35:29;7.20;;;1.67;;
83127;SDS011;73018;51.502;10.774;2023-09-30T15:37:55;4.85;;;1.70;;
83127;SDS011;73018;51.502;10.774;2023-09-30T15:40:22;5.55;;;1.40;;
83127;SDS011;73018;51.502;10.774;2023-09-30T15:42:48;7.88;;;2.13;;
83127;SDS011;73018;51.502;10.774;2023-09-30T15:45:14;7.20;;;2.30;;
83127;SDS011;73018;51.502;10.774;2023-09-30T15:47:43;4.85;;;1.60;;
83127;SDS011;73018;51.502;10.774;2023-09-30T15:50:11;4.95;;;1.80;;
83127;SDS011;73018;51.502;10.774;2023-09-30T15:52:37;8.43;;;1.90;;
83127;SDS011;73018;51.502;10.774;2023-09-30T15:57:29;3.88;;;1.00;;
83127;SDS011;73018;51.502;10.774;2023-09-30T16:02:21;6.00;;;1.73;;
83127;SDS011;73018;51.502;10.774;2023-09-30T16:07:14;9.48;;;1.23;;
83127;SDS011;73018;51.502;10.774;2023-09-30T16:09:40;4.75;;;1.10;;
83127;SDS011;73018;51.502;10.774;2023-09-30T16:14:32;2.72;;;0.93;;
83127;SDS011;73018;51.502;10.774;2023-09-30T16:16:59;2.95;;;0.70;;
83127;SDS011;73018;51.502;10.774;2023-09-30T16:19:26;4.85;;;1.30;;
83127;SDS011;73018;51.502;10.774;2023-09-30T16:21:52;4.05;;;1.13;;
83127;SDS011;73018;51.502;10.774;2023-09-30T16:24:20;3.88;;;1.40;;
83127;SDS011;73018;51.502;10.774;2023-09-30T16:26:46;3.03;;;0.90;;
83127;SDS011;73018;51.502;10.774;2023-09-30T16:31:38;3.75;;;1.27;;
83127;SDS011;73018;51.502;10.774;2023-09-30T16:36:30;3.50;;;1.23;;
83127;SDS011;73018;51.502;10.774;2023-09-30T16:38:57;2.97;;;0.80;;
83127;SDS011;73018;51.502;10.774;2023-09-30T16:43:50;4.22;;;1.73;;
83127;SDS011;73018;51.502;10.774;2023-09-30T16:46:17;3.83;;;1.33;;
83127;SDS011;73018;51.502;10.774;2023-09-30T16:51:10;7.53;;;1.60;;
83127;SDS011;73018;51.502;10.774;2023-09-30T16:53:38;4.30;;;1.30;;
83127;SDS011;73018;51.502;10.774;2023-09-30T16:56:04;4.38;;;1.70;;
83127;SDS011;73018;51.502;10.774;2023-09-30T16:58:30;5.00;;;1.63;;
83127;SDS011;73018;51.502;10.774;2023-09-30T17:00:58;7.72;;;2.00;;
83127;SDS011;73018;51.502;10.774;2023-09-30T17:03:25;5.13;;;1.45;;
83127;SDS011;73018;51.502;10.774;2023-09-30T17:05:54;4.78;;;1.35;;
83127;SDS011;73018;51.502;10.774;2023-09-30T17:08:20;7.10;;;1.80;;
83127;SDS011;73018;51.502;10.774;2023-09-30T17:10:47;9.63;;;1.95;;
83127;SDS011;73018;51.502;10.774;2023-09-30T17:13:15;7.03;;;1.95;;
83127;SDS011;73018;51.502;10.774;2023-09-30T17:15:41;4.38;;;1.70;;
83127;SDS011;73018;51.502;10.774;2023-09-30T17:20:34;3.60;;;1.48;;
83127;SDS011;73018;51.502;10.774;2023-09-30T17:23:01;4.35;;;2.03;;